Terminal Aerodrome Forecast
Issued by NWS Albany, NY

Home | Current Version | Previous Version | Text Only | Print | Product List | Glossary On
Versions: 1 2 3 4 5 6 7 8 9 10 11 12 13
210
FTUS41 KALY 212325
TAFALB
TAF
KALB 212325Z 2200/2224 22005KT P6SM SCT250
     FM220800 VRB03KT P6SM OVC100
     FM221300 16005KT 5SM -RA BR OVC035
     FM221900 18008KT P6SM -SHRA OVC035=

USA.gov is the U.S. government's official web portal to all federal, state and local government web resources and services.